Gazpromneft East — UBOF4 — position and weather

sailwx.info

Track history (hours):
 
Tides and Currents Weather Stations Pressure Air Temp Water Temp Dewpoint Dewpoint Depression Visibility Wind Speed Wind Dir Waves Ship Positions

Gazpromneft East

Last reported at 2014-Dec-21 00:32 UTC. Time now 2014-Dec-21 01:08 UTC.
Position N 59°53' E 030°13'.

Length 79 m; draft 5 m.

Type: Tanker. MMSI: 273335320.

Date/timePositionNaut miles runAvg speedWind from/ knotsBaromVisibWave heightAir tempDewpointWater temp
2014-Dec-21 00:32N 59°53' E 030°13'0 0.0
2014-Dec-20 23:33N 59°53' E 030°13'0 0.0
2014-Dec-20 22:33N 59°53' E 030°13'0 0.0
2014-Dec-20 21:33N 59°53' E 030°13'0 0.0
2014-Dec-20 20:33N 59°53' E 030°13'0 0.0
2014-Dec-20 19:33N 59°53' E 030°13'0 0.0
2014-Dec-20 18:25N 59°53' E 030°13'0 0.0
2014-Dec-20 17:23N 59°53' E 030°13'0 0.0
2014-Dec-20 16:24N 59°53' E 030°13'0 0.0
2014-Dec-20 14:26N 59°53' E 030°13'0 0.0
2014-Dec-20 13:26N 59°53' E 030°13'0 0.1
2014-Dec-20 12:32N 59°53' E 030°14'0 0.0
2014-Dec-20 11:18N 59°53' E 030°14'0 0.0
2014-Dec-20 10:27N 59°53' E 030°14'0 0.1
2014-Dec-20 09:33N 59°53' E 030°13'0 0.0
2014-Dec-20 08:33N 59°53' E 030°13'0 0.0
2014-Dec-20 07:33N 59°53' E 030°13'0 0.0
2014-Dec-20 06:33N 59°53' E 030°13'0 0.0
2014-Dec-20 05:33N 59°53' E 030°13'0 0.0
2014-Dec-20 04:30N 59°53' E 030°13'0 0.4
2014-Dec-20 03:33N 59°53' E 030°13'1 0.2
2014-Dec-20 00:33N 59°53' E 030°12'1 0.2
2014-Dec-19 20:26N 59°53' E 030°13'0 0.0
2014-Dec-19 19:33N 59°53' E 030°13'0 0.0
2014-Dec-19 18:27N 59°53' E 030°13'0 0.0
2014-Dec-19 12:09N 59°53' E 030°13'0 0.0
2014-Dec-19 11:17N 59°53' E 030°13'0 0.0
2014-Dec-19 10:16N 59°53' E 030°13'0 0.0
2014-Dec-19 03:33N 59°53' E 030°13'0 0.0
2014-Dec-19 01:33N 59°53' E 030°13'0 0.0
2014-Dec-18 18:20N 59°53' E 030°13'0 0.1
2014-Dec-18 17:21N 59°53' E 030°14'0 0.0
2014-Dec-18 16:11N 59°53' E 030°14'0 0.2
2014-Dec-18 15:33N 59°53' E 030°13'0 0.0
2014-Dec-18 14:33N 59°53' E 030°13'0 0.0
2014-Dec-18 13:33N 59°53' E 030°13'2 0.1
2014-Dec-16 17:26N 59°53' E 030°09'2 0.5
2014-Dec-16 12:16N 59°53' E 030°14'0 0.0
2014-Dec-16 11:28N 59°53' E 030°14'1 0.0
2014-Dec-15 16:29N 59°54' E 030°13'0 0.0
2014-Dec-15 15:32N 59°54' E 030°13'0 0.0
2014-Dec-15 14:32N 59°54' E 030°13'0 0.0
2014-Dec-15 13:32N 59°54' E 030°13'0 0.0
2014-Dec-13 16:32N 59°53' E 030°13'0 0.0
2014-Dec-13 13:25N 59°53' E 030°13'2 2.2
2014-Dec-13 12:33N 59°55' E 030°15'0 0.2
2014-Dec-13 11:03N 59°55' E 030°14'0 0.0
2014-Dec-13 09:15N 59°55' E 030°14'0 0.0
2014-Dec-13 07:33N 59°55' E 030°14'2 0.1
2014-Dec-12 14:28N 59°53' E 030°13'0 0.0
2014-Dec-12 11:25N 59°53' E 030°13'0 0.1
2014-Dec-12 09:24N 59°53' E 030°13'1 0.0
2014-Dec-11 11:23N 59°53' E 030°12'1 0.1
2014-Dec-11 01:32N 59°53' E 030°14'  
Track history (hours):
 
Tides and Currents Weather Stations Pressure Air Temp Water Temp Dewpoint Dewpoint Depression Visibility Wind Speed Wind Dir Waves Ship Positions

Gazpromneft East

Last reported at 2014-Dec-21 00:32 UTC. Time now 2014-Dec-21 01:08 UTC.
Position N 59°53' E 030°13'.

Length 79 m; draft 5 m.

Type: Tanker. MMSI: 273335320.

Date/timePositionNaut miles runAvg speedWind from/ knotsBaromVisibWave heightAir tempDewpointWater temp
2014-Dec-21 00:32N 59°53' E 030°13'0 0.0
2014-Dec-20 23:33N 59°53' E 030°13'0 0.0
2014-Dec-20 22:33N 59°53' E 030°13'0 0.0
2014-Dec-20 21:33N 59°53' E 030°13'0 0.0
2014-Dec-20 20:33N 59°53' E 030°13'0 0.0
2014-Dec-20 19:33N 59°53' E 030°13'0 0.0
2014-Dec-20 18:25N 59°53' E 030°13'0 0.0
2014-Dec-20 17:23N 59°53' E 030°13'0 0.0
2014-Dec-20 16:24N 59°53' E 030°13'0 0.0
2014-Dec-20 14:26N 59°53' E 030°13'0 0.0
2014-Dec-20 13:26N 59°53' E 030°13'0 0.1
2014-Dec-20 12:32N 59°53' E 030°14'0 0.0
2014-Dec-20 11:18N 59°53' E 030°14'0 0.0
2014-Dec-20 10:27N 59°53' E 030°14'0 0.1
2014-Dec-20 09:33N 59°53' E 030°13'0 0.0
2014-Dec-20 08:33N 59°53' E 030°13'0 0.0
2014-Dec-20 07:33N 59°53' E 030°13'0 0.0
2014-Dec-20 06:33N 59°53' E 030°13'0 0.0
2014-Dec-20 05:33N 59°53' E 030°13'0 0.0
2014-Dec-20 04:30N 59°53' E 030°13'0 0.4
2014-Dec-20 03:33N 59°53' E 030°13'1 0.2
2014-Dec-20 00:33N 59°53' E 030°12'1 0.2
2014-Dec-19 20:26N 59°53' E 030°13'0 0.0
2014-Dec-19 19:33N 59°53' E 030°13'0 0.0
2014-Dec-19 18:27N 59°53' E 030°13'0 0.0
2014-Dec-19 12:09N 59°53' E 030°13'0 0.0
2014-Dec-19 11:17N 59°53' E 030°13'0 0.0
2014-Dec-19 10:16N 59°53' E 030°13'0 0.0
2014-Dec-19 03:33N 59°53' E 030°13'0 0.0
2014-Dec-19 01:33N 59°53' E 030°13'0 0.0
2014-Dec-18 18:20N 59°53' E 030°13'0 0.1
2014-Dec-18 17:21N 59°53' E 030°14'0 0.0
2014-Dec-18 16:11N 59°53' E 030°14'0 0.2
2014-Dec-18 15:33N 59°53' E 030°13'0 0.0
2014-Dec-18 14:33N 59°53' E 030°13'0 0.0
2014-Dec-18 13:33N 59°53' E 030°13'2 0.1
2014-Dec-16 17:26N 59°53' E 030°09'2 0.5
2014-Dec-16 12:16N 59°53' E 030°14'0 0.0
2014-Dec-16 11:28N 59°53' E 030°14'1 0.0
2014-Dec-15 16:29N 59°54' E 030°13'0 0.0
2014-Dec-15 15:32N 59°54' E 030°13'0 0.0
2014-Dec-15 14:32N 59°54' E 030°13'0 0.0
2014-Dec-15 13:32N 59°54' E 030°13'0 0.0
2014-Dec-13 16:32N 59°53' E 030°13'0 0.0
2014-Dec-13 13:25N 59°53' E 030°13'2 2.2
2014-Dec-13 12:33N 59°55' E 030°15'0 0.2
2014-Dec-13 11:03N 59°55' E 030°14'0 0.0
2014-Dec-13 09:15N 59°55' E 030°14'0 0.0
2014-Dec-13 07:33N 59°55' E 030°14'2 0.1
2014-Dec-12 14:28N 59°53' E 030°13'0 0.0
2014-Dec-12 11:25N 59°53' E 030°13'0 0.1
2014-Dec-12 09:24N 59°53' E 030°13'1 0.0
2014-Dec-11 11:23N 59°53' E 030°12'1 0.1
2014-Dec-11 01:32N 59°53' E 030°14'  

Dump ship's entire track history